Time;durP1;ratioP1;P1;durP2;ratioP2;P2;SDS_P1;SDS_P2;PMS_P1;PMS_P2;Temp;Humidity;BMP_temperature;BMP_pressure;BME280_temperature;BME280_humidity;BME280_pressure;Samples;Min_cycle;Max_cycle;Signal;HPM_P1;HPM_P2
2022/03/13 00:02:01;;;;;;;31.83;16.20;;;;;;;2.03;34.49;101714.28;5330600;32;43407;-71
2022/03/13 00:05:06;;;;;;;35.22;16.65;;;;;;;2.19;34.36;101702.44;5368291;32;35501;-65
2022/03/13 00:08:27;;;;;;;32.43;16.60;;;;;;;2.33;34.12;101707.84;5358709;32;34035;-63
2022/03/13 00:11:30;;;;;;;30.87;16.60;;;;;;;3.06;32.09;101698.50;5375591;32;44605;-70
2022/03/13 00:14:32;;;;;;;30.70;15.50;;;;;;;2.02;32.19;101709.94;5360253;32;34680;-68
2022/03/13 00:17:34;;;;;;;34.13;16.23;;;;;;;2.32;32.15;101701.78;5368428;32;34811;-64
2022/03/13 00:20:38;;;;;;;29.77;16.23;;;;;;;2.61;32.38;101703.94;5375645;32;34477;-64
2022/03/13 00:23:40;;;;;;;37.00;15.80;;;;;;;2.47;32.83;101703.75;5335592;32;33995;-71
2022/03/13 00:26:42;;;;;;;36.47;15.87;;;;;;;2.94;32.04;101693.12;5367820;32;34274;-68
2022/03/13 00:29:45;;;;;;;34.50;16.40;;;;;;;3.12;31.38;101685.59;5359555;32;34523;-63
2022/03/13 00:32:47;;;;;;;31.43;15.50;;;;;;;2.74;31.70;101684.22;5372705;32;34026;-63
2022/03/13 00:35:49;;;;;;;34.77;16.13;;;;;;;0.68;35.51;101702.13;5362558;32;33818;-62
2022/03/13 00:38:51;;;;;;;35.87;17.60;;;;;;;0.64;35.77;101703.75;5352458;32;34611;-63
2022/03/13 00:41:53;;;;;;;33.23;16.50;;;;;;;0.71;36.14;101705.66;5377669;32;34471;-63
2022/03/13 00:44:56;;;;;;;41.03;17.60;;;;;;;1.17;35.78;101706.62;5327483;32;34850;-70
2022/03/13 00:47:58;;;;;;;43.47;18.93;;;;;;;0.63;37.05;101702.00;5374943;32;46124;-63
2022/03/13 00:51:00;;;;;;;47.00;22.00;;;;;;;1.04;36.52;101695.16;5340307;32;35443;-64
2022/03/13 00:54:04;;;;;;;37.83;17.67;;;;;;;0.73;37.18;101698.81;5372556;32;34605;-71
2022/03/13 00:57:06;;;;;;;36.47;16.87;;;;;;;1.31;36.18;101692.25;5360663;32;34114;-72
2022/03/13 01:00:10;;;;;;;41.47;17.37;;;;;;;2.11;34.49;101684.16;5353561;32;34609;-64
2022/03/13 01:03:47;;;;;;;40.10;18.43;;;;;;;0.96;36.41;101696.69;5364737;32;34339;-63
2022/03/13 01:06:49;;;;;;;38.90;18.70;;;;;;;0.39;37.98;101697.19;5364049;32;35764;-71
2022/03/13 01:09:52;;;;;;;39.00;17.93;;;;;;;0.48;37.83;101683.56;5375086;32;35197;-63
2022/03/13 01:12:54;;;;;;;48.23;20.03;;;;;;;0.31;38.33;101690.94;5352033;32;34115;-63
2022/03/13 01:16:21;;;;;;;43.07;20.33;;;;;;;0.38;38.47;101689.34;5363457;32;34877;-69
2022/03/13 01:19:23;;;;;;;44.20;19.70;;;;;;;0.19;38.87;101686.38;5366709;32;35416;-63
2022/03/13 01:22:25;;;;;;;38.83;17.93;;;;;;;0.08;39.82;101695.56;5359983;32;34594;-70
2022/03/13 01:25:27;;;;;;;40.53;17.83;;;;;;;0.89;38.29;101689.62;5374187;32;44418;-70
2022/03/13 01:28:30;;;;;;;37.97;19.37;;;;;;;1.98;35.77;101665.78;5354009;32;35356;-62
2022/03/13 01:31:35;;;;;;;40.43;17.73;;;;;;;0.63;38.77;101680.44;5374784;32;35265;-67
2022/03/13 01:34:43;;;;;;;38.20;19.70;;;;;;;0.24;40.57;101681.28;5372252;32;35763;-63
2022/03/13 01:37:45;;;;;;;41.93;19.07;;;;;;;0.26;40.99;101689.97;5355838;32;34545;-69
2022/03/13 01:40:48;;;;;;;41.40;19.27;;;;;;;1.35;38.42;101673.34;5378602;32;35439;-63
2022/03/13 01:43:51;;;;;;;41.63;19.43;;;;;;;0.62;39.58;101678.69;5333436;32;34783;-70
2022/03/13 01:46:53;;;;;;;42.50;20.23;;;;;;;0.56;40.51;101669.09;5374044;32;35243;-64
2022/03/13 01:49:56;;;;;;;40.93;19.20;;;;;;;0.69;40.32;101665.06;5358020;32;34978;-63
2022/03/13 01:52:58;;;;;;;42.63;19.70;;;;;;;0.97;39.32;101663.94;5360653;32;45714;-63
2022/03/13 01:56:00;;;;;;;40.80;19.60;;;;;;;0.56;40.09;101661.31;5373574;32;34641;-64
2022/03/13 01:59:03;;;;;;;37.23;18.40;;;;;;;0.51;40.18;101658.62;5356601;32;34895;-69
2022/03/13 02:02:05;;;;;;;36.13;19.37;;;;;;;0.29;40.67;101664.16;5362900;32;34002;-62
2022/03/13 02:05:22;;;;;;;40.83;19.43;;;;;;;0.43;40.05;101662.75;5359835;32;35303;-62
2022/03/13 02:08:24;;;;;;;34.03;17.77;;;;;;;0.32;40.52;101656.47;5373757;32;36539;-63
2022/03/13 02:11:36;;;;;;;41.77;19.77;;;;;;;0.86;39.07;101650.75;5364662;32;34999;-69
2022/03/13 02:14:38;;;;;;;40.40;19.23;;;;;;;0.21;40.47;101656.25;5351672;32;35247;-64
2022/03/13 02:17:40;;;;;;;39.70;19.90;;;;;;;0.34;40.27;101643.59;5372894;32;34611;-71
2022/03/13 02:20:44;;;;;;;44.60;20.60;;;;;;;0.45;40.70;101647.28;5360543;32;34420;-62
2022/03/13 02:23:46;;;;;;;39.75;19.17;;;;;;;0.38;41.08;101651.44;5378144;32;34067;-71
2022/03/13 02:26:58;;;;;;;38.80;19.10;;;;;;;0.58;40.91;101648.41;5363164;32;35128;-63
2022/03/13 02:30:01;;;;;;;42.63;19.70;;;;;;;-0.01;42.13;101646.22;5364940;32;44777;-63
2022/03/13 02:33:03;;;;;;;41.20;18.40;;;;;;;-0.21;43.03;101657.78;5364294;32;35176;-62
2022/03/13 02:36:21;;;;;;;42.03;18.57;;;;;;;-0.24;43.96;101657.72;5362984;32;35419;-63
2022/03/13 02:39:24;;;;;;;38.27;18.30;;;;;;;-0.44;44.65;101663.25;5369164;32;34649;-69
2022/03/13 02:42:26;;;;;;;36.50;18.67;;;;;;;-0.72;45.36;101665.91;5345220;32;35501;-63
2022/03/13 02:45:31;;;;;;;39.90;19.10;;;;;;;-0.03;43.55;101659.09;5351408;32;45316;-63
2022/03/13 02:48:33;;;;;;;45.90;18.80;;;;;;;-0.20;44.25;101662.09;5355590;32;35064;-68
2022/03/13 02:51:35;;;;;;;40.63;18.90;;;;;;;-0.20;44.37;101662.09;5364304;32;34406;-62
2022/03/13 02:54:37;;;;;;;42.43;19.23;;;;;;;1.33;41.10;101645.62;5379690;32;35188;-68
2022/03/13 02:57:39;;;;;;;46.23;19.27;;;;;;;-0.24;43.94;101645.66;5358090;32;35300;-63
2022/03/13 03:00:44;;;;;;;40.67;18.70;;;;;;;-0.76;45.48;101644.31;5378315;32;34071;-71
2022/03/13 03:03:47;;;;;;;38.00;17.30;;;;;;;-0.85;45.82;101647.50;5351890;32;33979;-68
2022/03/13 03:06:56;;;;;;;42.03;18.47;;;;;;;-0.22;44.16;101643.13;5364031;32;36534;-64
2022/03/13 03:09:58;;;;;;;43.87;18.50;;;;;;;-0.15;44.30;101642.41;5359381;32;45549;-63
2022/03/13 03:13:00;;;;;;;43.20;18.90;;;;;;;0.25;43.07;101634.75;5348047;32;34685;-70
2022/03/13 03:16:03;;;;;;;37.47;18.83;;;;;;;-0.06;43.34;101642.66;5376458;32;34609;-63
2022/03/13 03:19:05;;;;;;;42.87;21.83;;;;;;;-0.55;44.55;101634.53;5367132;32;35146;-72
2022/03/13 03:22:07;;;;;;;43.90;21.30;;;;;;;-0.77;44.40;101637.41;5375735;32;34544;-63
2022/03/13 03:25:09;;;;;;;40.90;19.67;;;;;;;-0.69;44.55;101623.00;5365869;32;34731;-70
2022/03/13 03:28:15;;;;;;;38.67;18.57;;;;;;;-0.17;43.50;101628.59;5355040;32;34104;-63
2022/03/13 03:31:17;;;;;;;41.90;19.07;;;;;;;-0.35;43.44;101631.59;5362527;32;34818;-63
2022/03/13 03:34:22;;;;;;;36.50;18.33;;;;;;;0.13;42.75;101608.66;5364834;32;34635;-63
2022/03/13 03:37:25;;;;;;;33.57;16.67;;;;;;;-0.13;43.17;101620.06;5366240;32;37135;-62
2022/03/13 03:40:29;;;;;;;33.10;15.97;;;;;;;-0.60;43.24;101615.47;5351769;32;44699;-69
2022/03/13 03:43:32;;;;;;;35.07;16.40;;;;;;;-0.43;42.57;101623.66;5353093;32;35367;-63
2022/03/13 03:46:34;;;;;;;32.63;14.63;;;;;;;-0.22;40.95;101623.31;5362126;32;35414;-63
2022/03/13 03:49:37;;;;;;;34.80;14.73;;;;;;;-0.56;41.39;101617.31;5365150;32;36226;-70
2022/03/13 03:52:39;;;;;;;34.73;14.80;;;;;;;-0.61;41.79;101618.88;5361251;32;35337;-68
2022/03/13 03:55:41;;;;;;;30.90;13.87;;;;;;;-0.09;40.31;101619.31;5362222;32;33974;-70
2022/03/13 03:58:48;;;;;;;30.50;14.17;;;;;;;-0.48;40.91;101616.63;5375556;32;35259;-69
2022/03/13 04:01:50;;;;;;;33.03;14.25;;;;;;;0.18;39.48;101601.84;5362065;32;34134;-62
2022/03/13 04:04:53;;;;;;;53.17;21.93;;;;;;;-0.14;40.06;101602.81;5378413;32;35344;-68
2022/03/13 04:07:55;;;;;;;34.50;15.77;;;;;;;-0.41;40.96;101609.06;5358134;32;34721;-63
2022/03/13 04:10:57;;;;;;;35.20;15.83;;;;;;;-0.76;43.02;101612.47;5363707;32;44791;-69
2022/03/13 04:13:59;;;;;;;35.37;16.47;;;;;;;-0.49;42.36;101608.00;5361280;32;34487;-71
2022/03/13 04:17:02;;;;;;;29.87;15.27;;;;;;;-0.36;42.04;101607.47;5345919;32;34889;-70
2022/03/13 04:20:06;;;;;;;32.88;15.50;;;;;;;-0.40;42.33;101600.47;5368812;32;34199;-69
2022/03/13 04:23:08;;;;;;;28.85;15.10;;;;;;;-0.47;42.36;101606.31;5355792;32;34682;-72
2022/03/13 04:26:10;;;;;;;32.80;16.03;;;;;;;-0.40;42.33;101603.06;5378745;32;34663;-70
2022/03/13 04:29:13;;;;;;;35.13;16.73;;;;;;;-0.27;41.58;101599.94;5358076;32;34715;-63
2022/03/13 04:32:23;;;;;;;35.93;16.00;;;;;;;-0.54;43.43;101601.84;5360389;32;34750;-64
2022/03/13 04:35:25;;;;;;;37.00;17.27;;;;;;;-0.57;42.86;101605.22;5362491;32;35576;-70
2022/03/13 04:38:27;;;;;;;36.23;16.23;;;;;;;-0.69;44.36;101602.34;5359926;32;43316;-62
2022/03/13 04:41:30;;;;;;;40.80;18.07;;;;;;;-0.36;44.08;101596.28;5380336;32;34458;-63
2022/03/13 04:44:33;;;;;;;38.23;16.43;;;;;;;-0.80;45.45;101606.34;5332927;32;34202;-68
2022/03/13 04:47:35;;;;;;;37.37;17.43;;;;;;;-0.72;44.92;101599.66;5362053;32;34961;-64
2022/03/13 04:50:37;;;;;;;34.63;17.17;;;;;;;-1.27;46.72;101605.03;5356599;32;34552;-63
2022/03/13 04:53:40;;;;;;;35.70;16.33;;;;;;;-0.75;45.32;101594.44;5365448;32;34619;-64
2022/03/13 04:56:42;;;;;;;43.70;17.97;;;;;;;0.30;42.51;101603.84;5378951;32;34767;-63
2022/03/13 04:59:44;;;;;;;37.37;17.17;;;;;;;-0.04;43.82;101604.78;5350351;32;34733;-68
2022/03/13 05:02:46;;;;;;;37.47;18.43;;;;;;;-0.51;45.04;101603.66;5360108;32;35843;-68
2022/03/13 05:05:49;;;;;;;39.03;19.73;;;;;;;0.07;44.15;101603.34;5364209;32;34217;-70
2022/03/13 05:08:51;;;;;;;36.80;18.23;;;;;;;-1.03;47.37;101605.72;5372578;32;34608;-67
2022/03/13 05:11:54;;;;;;;39.37;18.40;;;;;;;-0.99;47.29;101610.13;5365196;32;34607;-64
2022/03/13 05:14:56;;;;;;;35.13;17.50;;;;;;;-1.37;48.71;101609.03;5358389;32;34450;-63
2022/03/13 05:17:58;;;;;;;37.57;17.80;;;;;;;-1.10;48.18;101602.06;5372481;32;44560;-70
2022/03/13 05:21:01;;;;;;;36.70;17.73;;;;;;;-1.35;48.91;101607.41;5363130;32;34264;-71
2022/03/13 05:24:04;;;;;;;35.87;18.17;;;;;;;-1.49;49.24;101608.69;5371776;32;35367;-69
2022/03/13 05:27:06;;;;;;;38.93;18.87;;;;;;;-0.57;47.52;101600.06;5346873;32;34126;-62
2022/03/13 05:30:09;;;;;;;38.93;19.67;;;;;;;-0.89;48.14;101608.69;5360380;32;35386;-71
2022/03/13 05:33:11;;;;;;;32.63;18.10;;;;;;;-0.17;45.92;101603.63;5363352;32;34639;-69
2022/03/13 05:36:13;;;;;;;38.43;19.37;;;;;;;0.58;44.35;101599.25;5350372;32;34071;-64
2022/03/13 05:39:15;;;;;;;34.93;18.60;;;;;;;1.10;42.94;101600.31;5375802;32;34356;-63
2022/03/13 05:42:18;;;;;;;36.80;19.63;;;;;;;-0.46;46.81;101613.22;5356667;32;34607;-64
2022/03/13 05:45:21;;;;;;;42.40;19.77;;;;;;;-0.32;47.06;101616.19;5347455;32;35799;-70
2022/03/13 05:48:25;;;;;;;41.00;18.30;;;;;;;0.51;44.75;101609.47;5365699;32;33815;-63
2022/03/13 05:51:28;;;;;;;33.23;16.23;;;;;;;0.07;45.13;101612.81;5342815;32;45522;-70
2022/03/13 05:54:30;;;;;;;40.73;17.27;;;;;;;1.26;41.42;101612.69;5362295;32;34722;-70
2022/03/13 05:57:32;;;;;;;36.87;17.60;;;;;;;1.90;39.81;101609.47;5364090;32;34942;-63
2022/03/13 06:00:39;;;;;;;35.50;16.27;;;;;;;1.62;39.78;101617.66;5379074;32;34657;-63
2022/03/13 06:03:42;;;;;;;34.63;17.67;;;;;;;3.48;35.77;101596.75;5358692;32;34066;-71
2022/03/13 06:06:44;;;;;;;37.65;17.60;;;;;;;3.82;34.91;101603.97;5363369;32;34042;-64
2022/03/13 06:09:46;;;;;;;43.37;20.40;;;;;;;4.47;33.68;101607.00;5352158;32;35245;-63
2022/03/13 06:12:48;;;;;;;32.80;17.43;;;;;;;2.71;37.95;101617.56;5345468;32;34543;-64
2022/03/13 06:15:51;;;;;;;38.93;20.93;;;;;;;5.27;33.01;101599.47;5371129;32;35132;-63
2022/03/13 06:18:53;;;;;;;43.00;20.97;;;;;;;3.93;35.40;101607.50;5358058;32;34247;-64
2022/03/13 06:21:55;;;;;;;42.77;22.57;;;;;;;3.52;36.82;101613.25;5377630;32;34306;-70
2022/03/13 06:24:57;;;;;;;47.73;22.23;;;;;;;2.71;37.68;101613.25;5356206;32;44346;-70
2022/03/13 06:27:59;;;;;;;42.87;20.43;;;;;;;2.68;37.95;101610.59;5371229;32;35295;-71
2022/03/13 06:31:02;;;;;;;46.17;21.53;;;;;;;5.00;33.06;101608.97;5362162;32;35240;-63
2022/03/13 06:34:04;;;;;;;44.00;20.93;;;;;;;4.33;33.83;101614.75;5353670;32;34942;-64
2022/03/13 06:37:08;;;;;;;43.30;19.50;;;;;;;4.92;32.57;101613.28;5373269;32;34693;-70
2022/03/13 06:40:10;;;;;;;38.23;19.97;;;;;;;6.47;30.12;101607.28;5357689;32;35008;-64
2022/03/13 06:43:13;;;;;;;36.80;19.63;;;;;;;6.22;29.84;101618.66;5356417;32;34352;-64
2022/03/13 06:46:15;;;;;;;34.83;19.40;;;;;;;4.23;32.90;101617.25;5340564;32;34518;-72
2022/03/13 06:49:17;;;;;;;34.67;18.43;;;;;;;5.69;30.40;101622.12;5368373;32;36337;-71
2022/03/13 06:52:20;;;;;;;34.80;18.30;;;;;;;4.95;31.29;101628.91;5346742;32;36917;-71
2022/03/13 06:55:22;;;;;;;38.80;17.92;;;;;;;5.93;29.02;101622.19;5350356;32;34799;-64
2022/03/13 06:58:25;;;;;;;27.30;17.47;;;;;;;6.12;28.71;101614.34;5374913;32;35066;-71
2022/03/13 07:01:27;;;;;;;28.33;16.50;;;;;;;5.77;29.14;101630.84;5348520;32;44843;-64
2022/03/13 07:04:29;;;;;;;26.37;15.97;;;;;;;5.49;30.03;101629.06;5366318;32;34751;-64
2022/03/13 07:07:31;;;;;;;29.50;17.43;;;;;;;5.89;29.42;101630.84;5358073;32;34589;-71
2022/03/13 07:10:33;;;;;;;30.23;17.57;;;;;;;6.93;27.74;101620.19;5363539;32;35676;-72
2022/03/13 07:13:36;;;;;;;31.23;18.37;;;;;;;6.82;27.63;101616.75;5355569;32;34894;-70
2022/03/13 07:16:39;;;;;;;31.33;18.10;;;;;;;6.00;29.19;101630.00;5357851;32;34576;-64
2022/03/13 07:19:43;;;;;;;31.73;18.93;;;;;;;6.06;28.95;101636.09;5373388;32;34148;-64
2022/03/13 07:22:46;;;;;;;32.03;18.00;;;;;;;6.13;29.33;101644.78;5353641;32;34104;-64
2022/03/13 07:25:49;;;;;;;32.10;19.37;;;;;;;6.39;28.52;101639.53;5367050;32;34010;-64
2022/03/13 07:28:51;;;;;;;30.05;17.87;;;;;;;6.36;28.04;101629.06;5350421;32;34228;-63
2022/03/13 07:31:56;;;;;;;27.87;15.97;;;;;;;5.66;28.07;101643.84;5373721;32;34998;-70
2022/03/13 07:34:58;;;;;;;27.40;15.50;;;;;;;9.65;22.33;101606.97;5369283;32;46283;-71
2022/03/13 07:38:00;;;;;;;28.43;16.60;;;;;;;10.69;21.04;101604.25;5365288;32;34937;-64
2022/03/13 07:41:03;;;;;;;29.93;17.63;;;;;;;10.07;22.23;101612.41;5380020;32;36445;-64
2022/03/13 07:44:05;;;;;;;27.92;16.30;;;;;;;11.90;19.79;101600.63;5333931;32;34746;-69
2022/03/13 07:47:07;;;;;;;27.67;17.03;;;;;;;11.85;19.26;101610.44;5362156;32;35273;-71
2022/03/13 07:50:10;;;;;;;29.57;17.40;;;;;;;12.53;18.83;101612.16;5358530;32;34547;-64
2022/03/13 07:53:12;;;;;;;34.80;17.53;;;;;;;11.07;20.21;101620.09;5366090;32;34252;-65
2022/03/13 07:56:15;;;;;;;33.57;18.83;;;;;;;9.54;21.68;101632.53;5366690;32;33995;-64
2022/03/13 07:59:17;;;;;;;29.25;17.75;;;;;;;8.57;23.52;101643.41;5360417;32;34232;-65
2022/03/13 08:02:19;;;;;;;28.20;17.90;;;;;;;8.04;23.81;101631.66;5349749;32;33493;-72
2022/03/13 08:05:22;;;;;;;30.63;18.67;;;;;;;7.29;25.14;101641.81;5350354;32;34061;-72
2022/03/13 08:08:24;;;;;;;28.17;17.80;;;;;;;8.72;23.90;101631.00;5371471;32;37086;-69
2022/03/13 08:11:26;;;;;;;31.80;19.83;;;;;;;7.46;24.98;101633.84;5363294;32;35326;-64
2022/03/13 08:14:29;;;;;;;33.87;18.67;;;;;;;6.71;26.56;101640.31;5364929;32;44732;-64
2022/03/13 08:17:31;;;;;;;27.60;15.33;;;;;;;6.64;26.40;101641.22;5358742;32;35344;-64
2022/03/13 08:20:33;;;;;;;30.70;16.70;;;;;;;6.49;25.28;101644.72;5351972;32;34680;-71
2022/03/13 08:23:35;;;;;;;30.17;17.27;;;;;;;6.05;26.28;101646.50;5370929;32;34965;-63
2022/03/13 08:26:38;;;;;;;36.10;17.80;;;;;;;5.80;26.75;101643.91;5362986;32;35042;-69
2022/03/13 08:29:40;;;;;;;37.47;17.67;;;;;;;4.91;27.96;101645.41;5371190;32;34208;-65
2022/03/13 08:32:43;;;;;;;31.30;16.53;;;;;;;6.50;25.92;101629.91;5358465;32;34151;-71
2022/03/13 08:35:45;;;;;;;31.13;16.50;;;;;;;4.86;28.12;101639.31;5343736;32;33818;-64
2022/03/13 08:38:47;;;;;;;26.17;14.00;;;;;;;5.84;25.66;101627.34;5365427;32;34967;-71
2022/03/13 08:41:50;;;;;;;25.57;14.70;;;;;;;5.74;24.62;101623.03;5361052;32;35557;-64
2022/03/13 08:44:52;;;;;;;26.60;13.93;;;;;;;7.31;22.99;101621.72;5350542;32;35096;-64
2022/03/13 08:47:54;;;;;;;22.87;12.33;;;;;;;6.38;24.00;101615.16;5357566;32;34849;-64
2022/03/13 08:50:57;;;;;;;21.17;11.03;;;;;;;6.35;22.58;101614.28;5377737;32;34606;-71
2022/03/13 08:53:59;;;;;;;21.77;11.10;;;;;;;7.09;20.97;101617.50;5355076;32;44718;-71
2022/03/13 08:57:02;;;;;;;22.17;10.57;;;;;;;6.39;21.68;101618.62;5355728;32;34386;-71
2022/03/13 09:00:04;;;;;;;20.20;10.75;;;;;;;8.14;19.68;101614.97;5370798;32;35478;-64
2022/03/13 09:03:07;;;;;;;25.63;11.13;;;;;;;7.84;19.92;101612.63;5356740;32;34392;-71
2022/03/13 09:06:09;;;;;;;20.07;10.93;;;;;;;7.04;20.79;101613.16;5364934;32;34550;-71
2022/03/13 09:09:12;;;;;;;22.73;11.27;;;;;;;8.22;19.84;101612.28;5364329;32;34318;-70
2022/03/13 09:12:15;;;;;;;20.93;10.60;;;;;;;6.95;21.06;101613.19;5364129;32;34110;-65
2022/03/13 09:15:17;;;;;;;20.10;11.07;;;;;;;7.94;19.72;101595.97;5358257;32;34232;-70
2022/03/13 09:18:19;;;;;;;27.60;11.13;;;;;;;7.55;20.03;101603.25;5336178;32;35343;-72
2022/03/13 09:21:22;;;;;;;22.77;10.13;;;;;;;7.17;20.19;101598.28;5365612;32;34887;-72
2022/03/13 09:24:25;;;;;;;14.48;6.57;;;;;;;9.01;18.30;101571.19;5356817;32;34808;-71
2022/03/13 09:27:28;;;;;;;11.77;5.80;;;;;;;9.31;16.75;101564.63;5375191;32;44905;-64
2022/03/13 09:30:30;;;;;;;12.18;5.87;;;;;;;9.39;16.26;101561.88;5352234;32;34516;-63
2022/03/13 09:33:32;;;;;;;11.90;5.70;;;;;;;7.72;17.51;101576.09;5362748;32;34430;-72
2022/03/13 09:36:37;;;;;;;14.37;5.77;;;;;;;8.22;17.16;101579.97;5364578;32;34845;-71
2022/03/13 09:39:39;;;;;;;11.83;5.77;;;;;;;9.55;16.22;101568.66;5365388;32;35055;-64
2022/03/13 09:42:42;;;;;;;11.97;5.87;;;;;;;9.57;16.02;101550.25;5351620;32;34518;-64
2022/03/13 09:45:46;;;;;;;11.25;5.40;;;;;;;9.49;15.96;101547.75;5337756;32;34214;-71
2022/03/13 09:48:51;;;;;;;13.07;6.07;;;;;;;9.63;16.31;101545.75;5370274;32;35820;-66
2022/03/13 09:51:54;;;;;;;12.40;5.93;;;;;;;9.53;15.78;101543.28;5360859;32;35294;-72
2022/03/13 09:54:56;;;;;;;11.95;6.25;;;;;;;12.00;14.11;101530.12;5368835;32;35056;-71
2022/03/13 09:57:58;;;;;;;11.83;6.47;;;;;;;11.98;13.89;101523.16;5359867;32;47682;-65
2022/03/13 10:01:01;;;;;;;15.53;7.00;;;;;;;12.90;13.47;101522.25;5361403;32;34690;-64
2022/03/13 10:04:04;;;;;;;12.25;6.97;;;;;;;15.81;10.81;101527.53;5369017;32;36076;-73
2022/03/13 10:07:11;;;;;;;19.37;9.07;;;;;;;14.70;11.01;101524.97;5357625;32;34645;-65
2022/03/13 10:10:13;;;;;;;15.03;8.47;;;;;;;16.69;10.29;101517.41;5372938;32;34871;-67
2022/03/13 10:13:17;;;;;;;16.02;8.00;;;;;;;16.01;10.85;101526.69;5356052;32;34253;-71
2022/03/13 10:16:35;;;;;;;15.50;8.13;;;;;;;17.19;10.52;101516.81;5342541;32;34923;-72
2022/03/13 10:19:37;;;;;;;13.52;8.10;;;;;;;16.17;11.36;101520.66;5365567;32;35264;-72
2022/03/13 10:22:40;;;;;;;13.95;7.82;;;;;;;19.55;8.84;101513.88;5359159;32;34408;-71
2022/03/13 10:25:43;;;;;;;14.23;8.65;;;;;;;19.46;8.79;101519.78;5373939;32;34808;-73
2022/03/13 10:28:46;;;;;;;13.35;8.05;;;;;;;20.71;8.52;101516.66;5353528;32;34058;-71
2022/03/13 10:31:57;;;;;;;11.55;7.15;;;;;;;18.99;9.09;101522.47;5375829;32;34477;-71
2022/03/13 10:35:01;;;;;;;11.63;7.10;;;;;;;19.49;8.54;101512.44;5356775;32;44570;-67
2022/03/13 10:38:14;;;;;;;12.55;7.20;;;;;;;21.19;7.51;101511.75;5347720;32;34829;-67
2022/03/13 10:41:20;;;;;;;13.07;7.05;;;;;;;20.87;7.62;101505.84;5378169;32;34207;-72
2022/03/13 10:44:24;;;;;;;13.50;8.20;;;;;;;21.06;7.60;101509.91;5339652;32;34668;-65
2022/03/13 10:47:27;;;;;;;14.27;7.93;;;;;;;21.41;7.74;101500.53;5374155;32;34775;-65
2022/03/13 10:50:30;;;;;;;15.65;7.80;;;;;;;18.76;8.97;101513.12;5360987;32;46252;-71
2022/03/13 10:53:32;;;;;;;14.45;7.50;;;;;;;22.80;6.82;101498.81;5371103;32;34756;-65
2022/03/13 10:56:35;;;;;;;;;;;;;;;22.06;7.05;101497.84;5355179;32;34862;-72
2022/03/13 10:59:39;;;;;;;11.82;7.07;;;;;;;22.04;6.52;101492.59;5363483;32;35465;-65
2022/03/13 11:02:41;;;;;;;13.70;7.70;;;;;;;21.32;7.08;101494.84;5376001;32;34052;-72
2022/03/13 11:05:43;;;;;;;10.57;6.35;;;;;;;18.75;8.34;101495.44;5352240;32;34169;-72
2022/03/13 11:08:47;;;;;;;13.57;7.20;;;;;;;19.27;7.96;101495.13;5374368;32;34691;-71
2022/03/13 11:11:50;;;;;;;13.65;6.47;;;;;;;16.03;9.65;101507.09;5350075;32;34636;-65
2022/03/13 11:14:53;;;;;;;;;;;;;;;16.67;8.96;101504.19;5358586;32;34645;-70
2022/03/13 11:17:56;;;;;;;11.85;6.90;;;;;;;17.03;9.10;101488.34;5376437;32;34383;-63
2022/03/13 11:20:59;;;;;;;;;;;;;;;15.44;10.40;101497.25;5364577;32;45770;-71
2022/03/13 11:24:01;;;;;;;14.23;7.47;;;;;;;18.12;9.25;101488.16;5379813;32;35446;-73
2022/03/13 11:27:07;;;;;;;16.17;7.97;;;;;;;18.18;9.30;101479.00;5349397;32;34477;-71
2022/03/13 11:30:13;;;;;;;17.60;7.45;;;;;;;19.48;8.54;101475.22;5373670;32;34475;-71
2022/03/13 11:33:44;;;;;;;12.87;7.07;;;;;;;17.72;9.28;101471.63;5345438;32;34142;-70
2022/03/13 11:36:47;;;;;;;15.13;7.37;;;;;;;15.90;10.47;101482.06;5360054;32;34127;-71
2022/03/13 11:39:59;;;;;;;13.13;7.00;;;;;;;14.69;11.32;101475.59;5356045;32;35215;-72
2022/03/13 11:43:17;;;;;;;14.47;6.60;;;;;;;14.83;11.17;101465.34;5340540;32;46831;-73
2022/03/13 11:46:38;;;;;;;14.40;7.57;;;;;;;15.27;10.71;101462.69;5355004;32;35838;-64
2022/03/13 11:49:40;;;;;;;14.67;7.40;;;;;;;14.55;11.37;101469.03;5374354;32;34605;-72
2022/03/13 11:52:42;;;;;;;14.30;6.50;;;;;;;14.34;11.72;101464.53;5358900;32;34398;-65
2022/03/13 11:56:02;;;;;;;17.33;9.13;;;;;;;16.47;10.19;101459.16;5352772;32;34557;-72
2022/03/13 11:59:18;;;;;;;13.07;7.17;;;;;;;15.78;10.40;101448.13;5360158;32;43652;-66
2022/03/13 12:02:51;;;;;;;14.97;6.60;;;;;;;14.34;11.47;101456.59;5353936;32;35071;-66
2022/03/13 12:05:54;;;;;;;15.57;5.80;;;;;;;14.79;11.13;101445.19;5363189;32;36061;-64
2022/03/13 12:09:09;;;;;;;12.20;5.93;;;;;;;15.05;11.02;101445.00;5349509;32;34851;-71
2022/03/13 12:12:14;;;;;;;11.80;5.80;;;;;;;18.45;8.88;101415.41;5359674;32;34294;-65
2022/03/13 12:15:21;;;;;;;10.07;5.73;;;;;;;20.34;7.77;101409.44;5346188;32;34087;-65
2022/03/13 12:18:32;;;;;;;11.93;6.20;;;;;;;20.96;7.56;101409.03;5357701;32;34735;-65
2022/03/13 12:21:35;;;;;;;15.10;6.43;;;;;;;17.08;9.37;101418.22;5376343;32;47756;-65
2022/03/13 12:24:37;;;;;;;11.30;6.57;;;;;;;17.33;8.91;101421.34;5353012;32;34994;-65
2022/03/13 12:27:45;;;;;;;11.68;6.18;;;;;;;20.40;7.56;101402.87;5363675;32;35248;-74
2022/03/13 12:30:47;;;;;;;15.50;6.83;;;;;;;19.85;7.93;101404.53;5359704;32;35030;-73
2022/03/13 12:33:51;;;;;;;10.57;5.90;;;;;;;18.72;8.68;101405.91;5372074;32;34848;-67
2022/03/13 12:36:54;;;;;;;10.75;6.05;;;;;;;18.60;8.89;101398.56;5354908;32;35045;-73
2022/03/13 12:39:58;;;;;;;13.52;6.05;;;;;;;20.13;7.63;101384.12;5348223;32;34821;-73
2022/03/13 12:43:01;;;;;;;11.15;5.62;;;;;;;17.97;8.72;101403.84;5347435;32;45118;-65
2022/03/13 12:46:04;;;;;;;9.35;5.30;;;;;;;19.38;8.21;101388.72;5351438;32;34246;-72
2022/03/13 12:49:07;;;;;;;;;;;;;;;22.46;6.69;101383.41;5374250;32;34851;-72
2022/03/13 12:52:15;;;;;;;9.93;5.93;;;;;;;18.53;8.22;101394.53;5359496;32;34564;-71
2022/03/13 12:55:18;;;;;;;10.63;6.10;;;;;;;19.55;7.98;101388.56;5365059;32;34675;-65
2022/03/13 12:58:22;;;;;;;11.38;6.35;;;;;;;18.29;8.90;101387.00;5355587;32;35636;-71
2022/03/13 13:01:24;;;;;;;15.05;6.78;;;;;;;21.19;7.70;101386.09;5363280;32;33965;-72
2022/03/13 13:04:27;;;;;;;12.00;6.03;;;;;;;22.20;7.18;101374.59;5374500;32;35361;-64
2022/03/13 13:07:31;;;;;;;13.50;5.80;;;;;;;21.99;7.08;101381.47;5350625;32;45960;-66
2022/03/13 13:10:33;;;;;;;11.80;6.30;;;;;;;19.91;8.09;101393.50;5371714;32;34059;-72
2022/03/13 13:13:35;;;;;;;9.15;5.15;;;;;;;21.84;7.04;101394.13;5342703;32;36099;-72
2022/03/13 13:16:37;;;;;;;13.30;6.00;;;;;;;19.40;8.25;101393.03;5363928;32;34824;-72
2022/03/13 13:19:41;;;;;;;11.27;5.50;;;;;;;18.71;8.66;101390.03;5366897;32;34713;-67
2022/03/13 13:22:44;;;;;;;13.17;6.27;;;;;;;20.23;8.30;101394.16;5357790;32;35342;-65
2022/03/13 13:25:50;;;;;;;;;;;;;;;21.89;7.22;101390.13;5366279;32;34008;-71
2022/03/13 13:28:57;;;;;;;11.68;6.30;;;;;;;24.65;5.93;101377.13;5360078;32;34743;-71
2022/03/13 13:32:25;;;;;;;13.35;6.50;;;;;;;26.40;5.17;101370.03;5360700;32;44979;-72
2022/03/13 13:35:34;;;;;;;12.37;6.78;;;;;;;26.95;4.76;101366.84;5352766;32;44856;-68
2022/03/13 13:38:36;;;;;;;11.65;6.78;;;;;;;24.49;5.73;101374.88;5354854;32;35734;-69
2022/03/13 13:41:39;;;;;;;13.40;7.10;;;;;;;24.31;5.96;101378.03;5376136;32;34234;-72
2022/03/13 13:44:41;;;;;;;13.13;6.68;;;;;;;23.78;6.10;101385.87;5325955;32;34995;-71
2022/03/13 13:47:43;;;;;;;17.92;7.12;;;;;;;26.79;4.85;101370.06;5380547;32;33954;-71
2022/03/13 13:50:47;;;;;;;13.32;6.65;;;;;;;21.23;7.50;101390.28;5351316;32;33996;-66
2022/03/13 13:54:17;;;;;;;11.88;6.80;;;;;;;25.53;5.20;101376.88;5355669;32;37189;-73
2022/03/13 13:57:22;;;;;;;11.82;6.68;;;;;;;17.92;8.82;101405.91;5380037;32;35274;-72
2022/03/13 14:00:28;;;;;;;10.40;5.35;;;;;;;14.25;11.42;101406.72;5349417;32;34369;-65
2022/03/13 14:03:30;;;;;;;11.67;5.60;;;;;;;13.19;11.95;101412.25;5370627;32;44783;-64
2022/03/13 14:06:37;;;;;;;13.53;5.30;;;;;;;13.46;11.94;101410.47;5353845;32;36671;-65
2022/03/13 14:09:40;;;;;;;11.43;4.87;;;;;;;12.62;12.39;101421.13;5365363;32;34168;-72